• Join FlightAware (Why Join?)
  • Login
  • US Flag 
06:26AM EDT


 

Airport Tracker/Info


-or-


 

Live Flight TrackerFlight Track Log ✈ WWI24 ✈ 01-May-2013 ✈ KOAK - KPSP

Flight Track Log - Related Links

Times and Time Zones

All times are in EDT time to prevent confusion due to time zone crossing. See the WWI24 flight status page for this flight to view local times or setup timezone preferences in your user account.

Time Position Orientation Groundspeed Altitude Reporting Facility
EDT Latitude Longitude Course Direction KTS MPH feet Rate Location/Type
10:05AM 37.7333 -122.2667 104° East 213 245 2,000  Level Northern Cal TRACON
10:06AM 37.7333 -122.3500 270° West 250 288 5,600 3,600 Climbing Northern Cal TRACON
10:07AM 37.6667 -122.3833 202° Southwest 276 318 9,300 3,240 Climbing Northern Cal TRACON
10:07AM 37.5833 -122.4000 189° South 348 400 11,800 2,640 Climbing Northern Cal TRACON
10:08AM 37.5653 -122.4056 194° South 339 390 12,600 3,060 Climbing Oakland Center
10:09AM 37.4786 -122.3422 150° Southeast 368 423 16,000 3,540 Climbing Oakland Center
10:10AM 37.2427 -122.2470 104° East  Level FlightAware Approximate
10:10AM 37.3981 -122.2161 129° Southeast 385 443 19,800  Level Oakland Center
10:11AM 37.3261 -122.1031 129° Southeast 411 473 22,500 2,580 Climbing Oakland Center
10:12AM 37.2531 -121.9847 128° Southeast 427 491 25,100 2,400 Climbing Oakland Center
10:13AM 37.1753 -121.8631 129° Southeast 444 511 27,500 2,340 Climbing Oakland Center
10:14AM 37.0894 -121.7278 128° Southeast 464 534 29,900 2,100 Climbing Oakland Center
10:15AM 37.0117 -121.6036 128° Southeast 480 552 31,800 2,160 Climbing Oakland Center
10:16AM 36.9267 -121.4678 128° Southeast 492 566 34,300 2,520 Climbing Oakland Center
10:17AM 36.8425 -121.3381 129° Southeast 485 558 37,000 2,340 Climbing Oakland Center
10:18AM 36.7619 -121.2133 129° Southeast 476 548 39,100 1,800 Climbing Oakland Center
10:19AM 36.6794 -121.0861 129° Southeast 473 544 40,800 1,800 Climbing Oakland Center
10:20AM 36.5814 -120.9350 129° Southeast 467 537 42,800 1,560 Climbing Oakland Center
10:21AM 36.5000 -120.8092 129° Southeast 465 535 44,000 900 Climbing Oakland Center
10:22AM 36.4175 -120.6817 129° Southeast 471 542 44,700 480 Climbing Oakland Center
10:23AM 36.3331 -120.5547 130° Southeast 474 545 45,000 120 Climbing Oakland Center
10:24AM 36.2492 -120.4286 129° Southeast 474 545 45,000  Level Oakland Center
10:25AM 36.1658 -120.3022 129° Southeast 473 544 45,000  Level Oakland Center
10:26AM 36.0822 -120.1775 130° Southeast 470 541 45,000  Level Oakland Center
10:27AM 35.9994 -120.0522 129° Southeast 470 541 45,000  Level Oakland Center
10:28AM 35.9150 -119.9261 130° Southeast 472 543 45,000  Level Oakland Center
10:29AM 35.8308 -119.8006 130° Southeast 474 545 45,000  Level Oakland Center
10:30AM 35.7458 -119.6758 130° Southeast 473 544 45,000  Level Oakland Center
10:31AM 35.6594 -119.5475 130° Southeast 481 554 45,000  Level Oakland Center
10:32AM 35.5744 -119.4233 130° Southeast 476 548 45,000  Level Oakland Center
10:33AM 35.4878 -119.2981 130° Southeast 478 550 45,000  Level Oakland Center
10:34AM 35.3858 -119.1478 130° Southeast 478 550 45,000  Level Oakland Center
10:35AM 35.3703 -119.1244 129° Southeast 476 548 45,000  Level Los Angeles Center
10:36AM 35.2847 -118.9989 130° Southeast 479 551 45,000  Level Los Angeles Center
10:37AM 35.1992 -118.8744 130° Southeast 479 551 45,000 -840 Level Los Angeles Center
10:38AM 35.1103 -118.7483 131° Southeast 487 560 43,300 -3,120 Descending Los Angeles Center
10:39AM 35.0197 -118.6192 131° Southeast 498 573 38,600 -4,800 Descending Los Angeles Center
10:40AM 34.9228 -118.4803 130° Southeast 488 562 33,500 -4,680 Descending Los Angeles Center
10:41AM 34.8367 -118.3578 131° Southeast 481 554 29,000 -4,200 Descending Los Angeles Center
10:42AM 34.7550 -118.2400 130° Southeast 462 532 24,900 -3,180 Descending Los Angeles Center
10:43AM 34.6711 -118.1375 135° Southeast 436 502 22,600 -2,460 Descending Los Angeles Center
10:44AM 34.5981 -118.0003 123° Southeast 410 472 19,900 -2,400 Descending Los Angeles Center
10:45AM 34.5439 -117.8753 118° Southeast 419 482 17,700 -1,440 Descending Los Angeles Center
10:46AM 34.4883 -117.7553 119° Southeast 413 475 17,000 -360 Descending Los Angeles Center
10:47AM 34.4342 -117.6367 119° Southeast 407 468 17,000  Level Los Angeles Center
10:48AM 34.3817 -117.5189 118° Southeast 403 464 17,000 -60 Level Los Angeles Center
10:49AM 34.3158 -117.3756 119° Southeast 404 465 16,900 -120 Descending Los Angeles Center
10:50AM 34.2597 -117.2556 119° Southeast 409 471 16,800 -540 Descending Los Angeles Center
10:51AM 34.2033 -117.1367 120° Southeast 409 471 15,900 -960 Descending Los Angeles Center
10:52AM 34.1475 -117.0172 119° Southeast 409 471 14,900 -1,020 Descending Los Angeles Center
10:53AM 34.1000 -116.9000 116° Southeast 397 457 14,000 -480 Descending Southern California TRACON
10:54AM 34.0417 -116.7903 123° Southeast 393 452 14,000 -420 Level Los Angeles Center
10:55AM 33.9806 -116.6603 120° Southeast 373 429 13,200 -840 Descending Los Angeles Center
10:56AM 33.9364 -116.5692 120° Southeast 326 375 12,100 -1,260 Descending Los Angeles Center
10:57AM 33.8867 -116.4617 119° Southeast 309 356 10,400 -1,320 Descending Los Angeles Center
10:58AM 33.8397 -116.4222 145° Southeast 269 310 9,400 -2,760 Descending Los Angeles Center
11:00AM 33.7667 -116.4000 166° South 215 247 3,300 -3,000 Descending Southern California TRACON
11:01AM 33.7833 -116.4667 287° West 176 203 1,800 -1,320 Descending Southern California TRACON
11:02AM 33.8167 -116.5000 320° Northwest 137 158 700 -1,140 Descending Southern California TRACON
11:04AM 33.8297 -116.5067 301° West  Level Estimated
11:11AM 33.8297 -116.5067 301° West  Level Estimated